createdAt,value
2023-03-22T00:00:49.000Z,0
2023-03-22T00:02:05.000Z,0
2023-03-22T00:03:21.000Z,0
2023-03-22T00:04:37.000Z,0
2023-03-22T00:05:53.000Z,0
2023-03-22T00:07:09.000Z,0
2023-03-22T00:08:25.000Z,0
2023-03-22T00:09:41.000Z,0
2023-03-22T00:10:58.000Z,0
2023-03-22T00:12:14.225Z,0
2023-03-22T00:13:30.000Z,0
2023-03-22T00:14:46.000Z,0
2023-03-22T00:16:02.000Z,0
2023-03-22T00:17:19.000Z,0
2023-03-22T00:18:35.000Z,0
2023-03-22T00:19:51.000Z,0
2023-03-22T00:21:06.000Z,0
2023-03-22T00:22:22.000Z,0
2023-03-22T00:23:39.000Z,0
2023-03-22T00:24:55.198Z,0
2023-03-22T00:26:11.000Z,0
2023-03-22T00:27:27.000Z,0
2023-03-22T00:28:43.000Z,0
2023-03-22T00:30:00.000Z,0
2023-03-22T00:31:16.000Z,0
2023-03-22T00:32:32.000Z,0
2023-03-22T00:33:48.000Z,0
2023-03-22T00:35:04.000Z,0
2023-03-22T00:36:21.000Z,0
2023-03-22T00:37:36.000Z,0
2023-03-22T00:38:52.000Z,0
2023-03-22T00:40:08.000Z,0
2023-03-22T00:41:24.000Z,0
2023-03-22T00:42:41.000Z,0
2023-03-22T00:43:57.000Z,0
2023-03-22T00:45:13.000Z,0
2023-03-22T00:46:29.000Z,0
2023-03-22T00:47:45.000Z,0
2023-03-22T00:49:01.000Z,0
2023-03-22T00:50:18.124Z,0
2023-03-22T00:51:34.000Z,0
2023-03-22T00:52:50.000Z,0
2023-03-22T00:54:05.000Z,0
2023-03-22T00:55:21.000Z,0
2023-03-22T00:56:38.000Z,0
2023-03-22T00:57:54.320Z,0
2023-03-22T00:59:10.000Z,0
2023-03-22T01:00:26.000Z,0
2023-03-22T01:01:42.913Z,0
2023-03-22T01:02:59.000Z,0
2023-03-22T01:04:15.000Z,0
2023-03-22T01:05:31.000Z,0
2023-03-22T01:06:47.000Z,0
2023-03-22T01:08:03.000Z,0
2023-03-22T01:09:20.000Z,0
2023-03-22T01:10:35.000Z,0
2023-03-22T01:11:51.000Z,0
2023-03-22T01:13:07.000Z,0
2023-03-22T01:14:23.000Z,0
2023-03-22T01:15:40.000Z,0
2023-03-22T01:16:56.000Z,0
2023-03-22T01:18:12.000Z,0
2023-03-22T01:19:28.000Z,0
2023-03-22T01:20:44.000Z,0
2023-03-22T01:22:01.000Z,0
2023-03-22T01:23:17.000Z,0
2023-03-22T01:24:33.000Z,0
2023-03-22T01:25:49.000Z,0
2023-03-22T01:27:04.000Z,0
2023-03-22T01:29:37.000Z,0
2023-03-22T01:30:53.000Z,0
2023-03-22T01:32:09.000Z,0
2023-03-22T01:33:25.866Z,0
2023-03-22T01:34:42.000Z,0
2023-03-22T01:35:58.000Z,0
2023-03-22T01:37:14.000Z,0
2023-03-22T01:38:30.000Z,0
2023-03-22T01:39:46.000Z,0
2023-03-22T01:41:03.000Z,0
2023-03-22T01:42:19.000Z,0
2023-03-22T01:43:34.000Z,0
2023-03-22T01:44:50.000Z,0
2023-03-22T01:46:06.000Z,0
2023-03-22T01:47:23.000Z,0
2023-03-22T01:48:39.000Z,0
2023-03-22T01:49:55.000Z,0
2023-03-22T01:51:11.000Z,0
2023-03-22T01:52:27.000Z,0
2023-03-22T01:53:44.001Z,0
2023-03-22T01:55:00.000Z,0
2023-03-22T01:56:16.000Z,0
2023-03-22T01:57:32.000Z,0
2023-03-22T01:58:48.000Z,0
2023-03-22T02:00:04.000Z,0
2023-03-22T02:01:20.000Z,0
2023-03-22T02:02:36.000Z,0
2023-03-22T02:03:52.000Z,0
2023-03-22T02:05:08.000Z,0
2023-03-22T02:06:24.000Z,0
2023-03-22T02:07:41.000Z,0
2023-03-22T02:08:57.000Z,0
2023-03-22T02:10:13.000Z,0
2023-03-22T02:11:29.000Z,0
2023-03-22T02:12:45.000Z,0
2023-03-22T02:14:02.000Z,0
2023-03-22T02:15:18.000Z,0
2023-03-22T02:16:33.000Z,0
2023-03-22T02:17:49.000Z,0
2023-03-22T02:19:05.000Z,0
2023-03-22T02:20:22.000Z,0
2023-03-22T02:21:38.000Z,0
2023-03-22T02:22:54.000Z,0
2023-03-22T02:24:10.000Z,0
2023-03-22T02:25:26.000Z,0
2023-03-22T02:26:43.000Z,0
2023-03-22T02:27:59.000Z,0
2023-03-22T02:29:15.000Z,0
2023-03-22T02:30:31.000Z,0
2023-03-22T02:31:47.840Z,0
2023-03-22T02:33:03.000Z,0
2023-03-22T02:34:19.000Z,0
2023-03-22T02:35:35.000Z,0
2023-03-22T02:36:51.000Z,0
2023-03-22T02:38:07.000Z,0
2023-03-22T02:39:24.000Z,0
2023-03-22T02:40:40.000Z,0
2023-03-22T02:41:56.000Z,0
2023-03-22T02:43:12.000Z,0
2023-03-22T02:44:28.000Z,0
2023-03-22T02:45:44.964Z,0
2023-03-22T02:47:01.000Z,0
2023-03-22T02:48:17.000Z,0
2023-03-22T02:49:32.000Z,0
2023-03-22T02:50:48.000Z,0
2023-03-22T02:52:04.000Z,0
2023-03-22T02:53:21.000Z,0
2023-03-22T02:54:37.000Z,0
2023-03-22T02:55:53.530Z,0
2023-03-22T02:57:09.732Z,0
2023-03-22T02:58:25.000Z,0
2023-03-22T02:59:42.000Z,0
2023-03-22T03:00:58.000Z,0
2023-03-22T03:02:14.000Z,0
2023-03-22T03:03:30.000Z,0
2023-03-22T03:04:46.000Z,0
2023-03-22T03:06:02.000Z,0
2023-03-22T03:07:18.000Z,0
2023-03-22T03:08:34.000Z,0
2023-03-22T03:09:50.674Z,0
2023-03-22T03:11:06.874Z,0
2023-03-22T03:12:23.000Z,0
2023-03-22T03:13:39.000Z,0
2023-03-22T03:14:55.000Z,0
2023-03-22T03:16:11.000Z,0
2023-03-22T03:17:27.000Z,0
2023-03-22T03:18:44.000Z,0
2023-03-22T03:20:00.000Z,0
2023-03-22T03:21:16.000Z,0
2023-03-22T03:22:31.633Z,0
2023-03-22T03:23:47.000Z,0
2023-03-22T03:25:04.000Z,0
2023-03-22T03:26:20.000Z,0
2023-03-22T03:27:36.000Z,0
2023-03-22T03:28:52.000Z,0
2023-03-22T03:30:07.000Z,0
2023-03-22T03:31:24.000Z,0
2023-03-22T03:32:40.000Z,0
2023-03-22T03:33:56.000Z,0
2023-03-22T03:35:12.584Z,0
2023-03-22T03:36:28.000Z,0
2023-03-22T03:37:44.000Z,0
2023-03-22T03:39:01.000Z,0
2023-03-22T03:40:17.000Z,0
2023-03-22T03:41:33.000Z,0
2023-03-22T03:42:49.000Z,0
2023-03-22T03:44:05.000Z,0
2023-03-22T03:45:22.000Z,0
2023-03-22T03:46:37.000Z,0
2023-03-22T03:47:53.000Z,0
2023-03-22T03:49:09.000Z,0
2023-03-22T03:50:25.000Z,0
2023-03-22T03:51:42.000Z,0
2023-03-22T03:52:58.000Z,0
2023-03-22T03:54:14.000Z,0
2023-03-22T03:55:30.000Z,0
2023-03-22T03:56:46.000Z,0
2023-03-22T03:58:03.000Z,0
2023-03-22T03:59:19.000Z,0
2023-03-22T04:00:35.472Z,0
2023-03-22T04:01:51.665Z,0
2023-03-22T04:03:06.000Z,0
2023-03-22T04:04:23.000Z,0
2023-03-22T04:05:39.000Z,0
2023-03-22T04:06:55.000Z,0
2023-03-22T04:08:11.000Z,0
2023-03-22T04:09:27.000Z,0
2023-03-22T04:10:44.000Z,0
2023-03-22T04:12:00.000Z,0
2023-03-22T04:13:16.000Z,0
2023-03-22T04:14:32.000Z,0
2023-03-22T04:15:48.000Z,0
2023-03-22T04:17:05.000Z,0
2023-03-22T04:18:21.000Z,0
2023-03-22T04:19:36.000Z,0
2023-03-22T04:20:52.000Z,0
2023-03-22T04:22:08.000Z,0
2023-03-22T04:23:25.000Z,0
2023-03-22T04:24:41.000Z,0
2023-03-22T04:25:57.000Z,0
2023-03-22T04:27:13.000Z,0
2023-03-22T04:28:29.000Z,0
2023-03-22T04:29:45.000Z,0
2023-03-22T04:31:02.000Z,0
2023-03-22T04:32:18.000Z,0
2023-03-22T04:33:34.000Z,0
2023-03-22T04:34:50.000Z,0
2023-03-22T04:36:05.000Z,0
2023-03-22T04:37:22.000Z,0
2023-03-22T04:38:38.307Z,0
2023-03-22T04:39:54.000Z,0
2023-03-22T04:41:10.000Z,0
2023-03-22T04:42:26.000Z,0
2023-03-22T04:43:43.000Z,0
2023-03-22T04:44:59.000Z,0
2023-03-22T04:46:15.000Z,0
2023-03-22T04:47:31.000Z,0
2023-03-22T04:48:47.000Z,0
2023-03-22T04:50:04.000Z,0
2023-03-22T04:51:20.254Z,0
2023-03-22T04:52:35.457Z,0
2023-03-22T04:53:51.000Z,0
2023-03-22T04:55:07.000Z,0
2023-03-22T04:56:24.000Z,0
2023-03-22T04:57:40.000Z,0
2023-03-22T04:58:56.000Z,0
2023-03-22T05:00:12.000Z,0
2023-03-22T05:01:28.000Z,0
2023-03-22T05:02:45.000Z,0
2023-03-22T05:04:01.206Z,0
2023-03-22T05:05:17.000Z,0
2023-03-22T05:06:33.000Z,0
2023-03-22T05:07:49.000Z,0
2023-03-22T05:09:05.000Z,0
2023-03-22T05:10:21.000Z,0
2023-03-22T05:11:37.000Z,0
2023-03-22T05:12:53.000Z,0
2023-03-22T05:14:09.000Z,0
2023-03-22T05:15:25.000Z,0
2023-03-22T05:16:42.142Z,0
2023-03-22T05:17:58.000Z,0
2023-03-22T05:19:14.000Z,0
2023-03-22T05:20:30.000Z,5
2023-03-22T05:21:46.000Z,5
2023-03-22T05:23:03.000Z,5
2023-03-22T05:24:19.000Z,5
2023-03-22T05:25:34.000Z,5
2023-03-22T05:26:50.000Z,11
2023-03-22T05:28:06.000Z,11
2023-03-22T05:29:23.000Z,16
2023-03-22T05:30:39.000Z,16
2023-03-22T05:31:55.000Z,22
2023-03-22T05:33:11.000Z,22
2023-03-22T05:34:27.000Z,28
2023-03-22T05:35:44.000Z,33
2023-03-22T05:37:00.000Z,33
2023-03-22T05:38:16.000Z,33
2023-03-22T05:39:32.649Z,39
2023-03-22T05:40:48.000Z,45
2023-03-22T05:42:04.000Z,56
2023-03-22T05:43:20.000Z,56
2023-03-22T05:44:36.000Z,56
2023-03-22T05:45:52.000Z,56
2023-03-22T05:47:08.000Z,50
2023-03-22T05:48:25.000Z,45
2023-03-22T05:49:41.000Z,45
2023-03-22T05:50:57.000Z,50
2023-03-22T05:52:13.000Z,56
2023-03-22T05:53:29.000Z,61
2023-03-22T05:54:46.000Z,61
2023-03-22T05:56:02.000Z,56
2023-03-22T05:57:18.000Z,50
2023-03-22T05:58:33.000Z,50
2023-03-22T05:59:49.000Z,45
2023-03-22T06:01:05.000Z,39
2023-03-22T06:02:22.000Z,39
2023-03-22T06:03:38.000Z,33
2023-03-22T06:04:54.000Z,28
2023-03-22T06:06:10.000Z,28
2023-03-22T06:07:26.000Z,28
2023-03-22T06:08:43.000Z,33
2023-03-22T06:09:59.000Z,45
2023-03-22T06:11:15.000Z,56
2023-03-22T06:12:31.000Z,67
2023-03-22T06:13:47.000Z,84
2023-03-22T06:15:03.107Z,90
2023-03-22T06:16:19.000Z,95
2023-03-22T06:17:35.000Z,95
2023-03-22T06:18:51.000Z,78
2023-03-22T06:20:07.868Z,67
2023-03-22T06:21:24.075Z,56
2023-03-22T06:22:40.000Z,56
2023-03-22T06:23:56.000Z,61
2023-03-22T06:25:12.000Z,73
2023-03-22T06:26:28.000Z,84
2023-03-22T06:27:45.000Z,90
2023-03-22T06:29:01.240Z,101
2023-03-22T06:30:17.000Z,118
2023-03-22T06:31:32.000Z,129
2023-03-22T06:32:48.000Z,146
2023-03-22T06:34:05.000Z,157
2023-03-22T06:35:21.000Z,168
2023-03-22T06:36:37.000Z,185
2023-03-22T06:37:53.000Z,191
2023-03-22T06:39:09.786Z,180
2023-03-22T06:40:26.000Z,196
2023-03-22T06:41:42.000Z,225
2023-03-22T06:42:58.000Z,253
2023-03-22T06:44:14.000Z,264
2023-03-22T06:45:30.000Z,270
2023-03-22T06:46:47.000Z,337
2023-03-22T06:48:02.000Z,495
2023-03-22T06:49:18.000Z,624
2023-03-22T06:50:34.000Z,680
2023-03-22T06:51:50.000Z,1839
2023-03-22T06:53:06.000Z,1665
2023-03-22T06:54:23.000Z,466
2023-03-22T06:55:39.000Z,438
2023-03-22T06:56:55.000Z,326
2023-03-22T06:58:11.720Z,1372
2023-03-22T06:59:27.906Z,663
2023-03-22T07:00:44.000Z,309
2023-03-22T07:02:00.000Z,241
2023-03-22T07:03:16.000Z,230
2023-03-22T07:04:31.000Z,230
2023-03-22T07:05:47.000Z,180
2023-03-22T07:07:04.000Z,185
2023-03-22T07:08:20.000Z,168
2023-03-22T07:09:36.000Z,151
2023-03-22T07:10:52.666Z,146
2023-03-22T07:12:08.857Z,135
2023-03-22T07:13:25.000Z,123
2023-03-22T07:14:41.000Z,118
2023-03-22T07:15:57.000Z,112
2023-03-22T07:17:13.000Z,106
2023-03-22T07:18:29.000Z,101
2023-03-22T07:19:46.000Z,95
2023-03-22T07:21:01.000Z,90
2023-03-22T07:22:17.000Z,90
2023-03-22T07:23:33.613Z,95
2023-03-22T07:24:49.000Z,106
2023-03-22T07:26:06.000Z,129
2023-03-22T07:27:22.000Z,151
2023-03-22T07:28:38.000Z,168
2023-03-22T07:29:54.000Z,191
2023-03-22T07:31:10.000Z,236
2023-03-22T07:32:27.000Z,281
2023-03-22T07:33:43.000Z,315
2023-03-22T07:34:59.000Z,371
2023-03-22T07:36:15.000Z,590
2023-03-22T07:37:30.000Z,1378
2023-03-22T07:38:46.000Z,1665
2023-03-22T07:40:03.000Z,2008
2023-03-22T07:41:19.000Z,1338
2023-03-22T07:42:35.000Z,624
2023-03-22T07:43:51.000Z,551
2023-03-22T07:45:06.000Z,607
2023-03-22T07:46:23.000Z,753
2023-03-22T07:47:39.000Z,1147
2023-03-22T07:48:55.000Z,815
2023-03-22T07:50:11.000Z,348
2023-03-22T07:51:27.000Z,315
2023-03-22T07:52:44.000Z,635
2023-03-22T07:54:00.000Z,675
2023-03-22T07:55:16.000Z,2340
2023-03-22T07:56:32.000Z,2536
2023-03-22T07:57:48.000Z,945
2023-03-22T07:59:05.000Z,2953
2023-03-22T08:00:21.265Z,1473
2023-03-22T08:01:36.000Z,995
2023-03-22T08:02:52.000Z,781
2023-03-22T08:04:08.000Z,855
2023-03-22T08:05:25.000Z,613
2023-03-22T08:06:41.000Z,393
2023-03-22T08:07:57.435Z,298
2023-03-22T08:09:13.000Z,253
2023-03-22T08:10:29.000Z,258
2023-03-22T08:11:46.000Z,225
2023-03-22T08:13:02.000Z,376
2023-03-22T08:14:18.399Z,258
2023-03-22T08:15:34.000Z,309
2023-03-22T08:16:50.000Z,202
2023-03-22T08:18:06.000Z,208
2023-03-22T08:19:22.000Z,196
2023-03-22T08:20:38.000Z,230
2023-03-22T08:21:54.000Z,309
2023-03-22T08:23:10.000Z,461
2023-03-22T08:24:27.000Z,309
2023-03-22T08:25:43.000Z,281
2023-03-22T08:26:59.345Z,326
2023-03-22T08:28:15.000Z,320
2023-03-22T08:29:31.000Z,348
2023-03-22T08:30:47.000Z,258
2023-03-22T08:32:04.000Z,202
2023-03-22T08:33:20.000Z,286
2023-03-22T08:34:35.000Z,275
2023-03-22T08:35:51.000Z,270
2023-03-22T08:37:07.000Z,708
2023-03-22T08:38:24.000Z,258
2023-03-22T08:39:40.000Z,326
2023-03-22T08:40:56.000Z,247
2023-03-22T08:42:12.000Z,258
2023-03-22T08:43:28.000Z,253
2023-03-22T08:44:45.000Z,731
2023-03-22T08:46:01.000Z,371
2023-03-22T08:47:17.000Z,241
2023-03-22T08:48:33.000Z,168
2023-03-22T08:49:49.000Z,135
2023-03-22T08:51:05.000Z,146
2023-03-22T08:52:21.000Z,185
2023-03-22T08:53:37.000Z,168
2023-03-22T08:54:53.000Z,174
2023-03-22T08:56:09.000Z,253
2023-03-22T08:57:26.020Z,292
2023-03-22T08:58:42.000Z,309
2023-03-22T08:59:58.397Z,331
2023-03-22T09:01:14.000Z,444
2023-03-22T09:02:30.000Z,371
2023-03-22T09:03:47.000Z,320
2023-03-22T09:05:03.183Z,455
2023-03-22T09:06:19.000Z,421
2023-03-22T09:07:34.000Z,343
2023-03-22T09:08:50.000Z,658
2023-03-22T09:10:07.000Z,1620
2023-03-22T09:11:23.000Z,528
2023-03-22T09:12:39.000Z,1271
2023-03-22T09:13:55.000Z,461
2023-03-22T09:15:11.000Z,573
2023-03-22T09:16:27.936Z,478
2023-03-22T09:17:44.000Z,1147
2023-03-22T09:19:00.000Z,472
2023-03-22T09:20:16.000Z,376
2023-03-22T09:21:32.000Z,444
2023-03-22T09:22:48.000Z,326
2023-03-22T09:24:04.000Z,286
2023-03-22T09:25:20.000Z,270
2023-03-22T09:26:36.000Z,225
2023-03-22T09:27:52.000Z,196
2023-03-22T09:29:08.000Z,213
2023-03-22T09:30:25.084Z,191
2023-03-22T09:31:41.000Z,241
2023-03-22T09:32:57.000Z,275
2023-03-22T09:34:13.000Z,444
2023-03-22T09:35:29.000Z,365
2023-03-22T09:36:46.000Z,371
2023-03-22T09:38:02.229Z,461
2023-03-22T09:39:18.000Z,483
2023-03-22T09:40:33.000Z,540
2023-03-22T09:41:49.000Z,596
2023-03-22T09:43:06.029Z,500
2023-03-22T09:44:22.000Z,450
2023-03-22T09:45:38.000Z,540
2023-03-22T09:46:54.000Z,489
2023-03-22T09:48:10.000Z,450
2023-03-22T09:49:27.000Z,731
2023-03-22T09:50:43.000Z,506
2023-03-22T09:51:59.000Z,466
2023-03-22T09:53:15.000Z,416
2023-03-22T09:54:31.000Z,399
2023-03-22T09:55:47.965Z,393
2023-03-22T09:57:03.000Z,399
2023-03-22T09:58:19.000Z,376
2023-03-22T09:59:35.000Z,365
2023-03-22T10:00:51.000Z,371
2023-03-22T10:02:07.000Z,371
2023-03-22T10:03:24.000Z,405
2023-03-22T10:04:40.000Z,472
2023-03-22T10:05:56.000Z,528
2023-03-22T10:07:12.000Z,590
2023-03-22T10:08:28.000Z,528
2023-03-22T10:09:45.000Z,478
2023-03-22T10:11:01.000Z,438
2023-03-22T10:12:17.000Z,523
2023-03-22T10:13:32.000Z,489
2023-03-22T10:14:48.000Z,506
2023-03-22T10:16:05.000Z,506
2023-03-22T10:17:21.000Z,478
2023-03-22T10:18:37.000Z,466
2023-03-22T10:19:53.000Z,506
2023-03-22T10:21:09.000Z,517
2023-03-22T10:22:26.000Z,478
2023-03-22T10:23:42.000Z,427
2023-03-22T10:24:58.000Z,382
2023-03-22T10:26:14.000Z,388
2023-03-22T10:27:30.000Z,393
2023-03-22T10:28:47.000Z,365
2023-03-22T10:30:02.000Z,326
2023-03-22T10:31:18.000Z,281
2023-03-22T10:32:34.000Z,264
2023-03-22T10:33:50.810Z,258
2023-03-22T10:35:07.000Z,253
2023-03-22T10:36:23.000Z,247
2023-03-22T10:37:39.000Z,236
2023-03-22T10:38:55.000Z,225
2023-03-22T10:40:11.000Z,236
2023-03-22T10:41:28.000Z,225
2023-03-22T10:42:44.000Z,264
2023-03-22T10:44:00.000Z,315
2023-03-22T10:45:16.541Z,371
2023-03-22T10:46:31.000Z,433
2023-03-22T10:47:48.000Z,534
2023-03-22T10:49:04.000Z,601
2023-03-22T10:50:20.000Z,630
2023-03-22T10:51:36.000Z,618
2023-03-22T10:52:52.000Z,618
2023-03-22T10:54:08.000Z,613
2023-03-22T10:55:25.000Z,601
2023-03-22T10:56:41.000Z,596
2023-03-22T10:57:57.000Z,585
2023-03-22T10:59:13.692Z,601
2023-03-22T11:00:29.000Z,607
2023-03-22T11:01:46.000Z,613
2023-03-22T11:03:01.000Z,613
2023-03-22T11:04:17.000Z,601
2023-03-22T11:05:33.000Z,579
2023-03-22T11:06:49.000Z,551
2023-03-22T11:08:06.000Z,562
2023-03-22T11:09:22.000Z,556
2023-03-22T11:10:38.000Z,517
2023-03-22T11:11:54.000Z,489
2023-03-22T11:13:10.000Z,483
2023-03-22T11:14:27.000Z,489
2023-03-22T11:15:43.000Z,500
2023-03-22T11:16:59.000Z,511
2023-03-22T11:18:15.000Z,517
2023-03-22T11:19:30.000Z,506
2023-03-22T11:20:47.000Z,483
2023-03-22T11:22:03.000Z,461
2023-03-22T11:23:19.000Z,427
2023-03-22T11:24:35.000Z,399
2023-03-22T11:25:51.000Z,382
2023-03-22T11:27:08.000Z,371
2023-03-22T11:28:24.000Z,365
2023-03-22T11:29:40.000Z,343
2023-03-22T11:30:56.000Z,326
2023-03-22T11:32:12.000Z,320
2023-03-22T11:33:28.970Z,315
2023-03-22T11:34:45.000Z,298
2023-03-22T11:36:00.373Z,303
2023-03-22T11:37:16.000Z,303
2023-03-22T11:38:32.000Z,303
2023-03-22T11:39:48.000Z,303
2023-03-22T11:41:05.000Z,315
2023-03-22T11:42:21.000Z,315
2023-03-22T11:43:37.000Z,303
2023-03-22T11:44:53.000Z,292
2023-03-22T11:46:09.922Z,286
2023-03-22T11:47:26.000Z,286
2023-03-22T11:48:42.000Z,286
2023-03-22T11:49:58.000Z,281
2023-03-22T11:51:14.000Z,270
2023-03-22T11:52:29.000Z,264
2023-03-22T11:53:46.000Z,264
2023-03-22T11:55:02.000Z,270
2023-03-22T11:56:18.000Z,264
2023-03-22T11:57:34.000Z,258
2023-03-22T11:58:50.000Z,253
2023-03-22T12:00:06.000Z,247
2023-03-22T12:01:22.000Z,247
2023-03-22T12:02:38.511Z,241
2023-03-22T12:03:54.000Z,230
2023-03-22T12:05:10.000Z,219
2023-03-22T12:06:27.000Z,213
2023-03-22T12:07:43.000Z,208
2023-03-22T12:08:59.000Z,208
2023-03-22T12:10:15.000Z,202
2023-03-22T12:11:31.000Z,191
2023-03-22T12:12:48.000Z,185
2023-03-22T12:14:04.000Z,191
2023-03-22T12:15:20.446Z,185
2023-03-22T12:16:35.000Z,174
2023-03-22T12:17:51.851Z,168
2023-03-22T12:19:08.000Z,174
2023-03-22T12:20:24.000Z,168
2023-03-22T12:21:40.000Z,163
2023-03-22T12:22:56.000Z,157
2023-03-22T12:24:12.000Z,146
2023-03-22T12:25:29.000Z,146
2023-03-22T12:26:45.000Z,146
2023-03-22T12:28:01.000Z,146
2023-03-22T12:29:17.000Z,146
2023-03-22T12:30:33.000Z,151
2023-03-22T12:31:50.000Z,151
2023-03-22T12:33:05.000Z,151
2023-03-22T12:34:21.000Z,157
2023-03-22T12:35:37.000Z,157
2023-03-22T12:36:53.000Z,157
2023-03-22T12:38:10.000Z,157
2023-03-22T12:39:26.000Z,151
2023-03-22T12:40:42.000Z,146
2023-03-22T12:41:58.000Z,140
2023-03-22T12:43:14.000Z,129
2023-03-22T12:44:31.000Z,123
2023-03-22T12:45:47.000Z,112
2023-03-22T12:47:03.000Z,106
2023-03-22T12:48:19.000Z,106
2023-03-22T12:49:34.000Z,106
2023-03-22T12:50:51.000Z,106
2023-03-22T12:52:07.000Z,112
2023-03-22T12:53:23.000Z,118
2023-03-22T12:54:39.000Z,123
2023-03-22T12:55:55.000Z,129
2023-03-22T12:57:12.000Z,129
2023-03-22T12:58:28.000Z,129
2023-03-22T12:59:44.000Z,123
2023-03-22T13:01:00.000Z,123
2023-03-22T13:02:16.000Z,123
2023-03-22T13:03:32.000Z,129
2023-03-22T13:04:49.000Z,129
2023-03-22T13:06:04.000Z,129
2023-03-22T13:07:20.000Z,129
2023-03-22T13:08:36.000Z,140
2023-03-22T13:09:52.000Z,146
2023-03-22T13:11:09.000Z,140
2023-03-22T13:12:25.000Z,140
2023-03-22T13:13:41.000Z,135
2023-03-22T13:14:57.000Z,135
2023-03-22T13:16:13.000Z,135
2023-03-22T13:17:30.000Z,140
2023-03-22T13:18:46.288Z,146
2023-03-22T13:20:02.000Z,157
2023-03-22T13:21:18.000Z,168
2023-03-22T13:22:33.000Z,185
2023-03-22T13:23:50.000Z,191
2023-03-22T13:25:06.000Z,191
2023-03-22T13:26:22.000Z,191
2023-03-22T13:27:38.000Z,196
2023-03-22T13:28:54.854Z,213
2023-03-22T13:30:11.000Z,225
2023-03-22T13:31:27.255Z,219
2023-03-22T13:32:43.000Z,225
2023-03-22T13:33:59.000Z,236
2023-03-22T13:35:15.000Z,213
2023-03-22T13:36:32.000Z,191
2023-03-22T13:37:48.214Z,196
2023-03-22T13:39:03.000Z,191
2023-03-22T13:40:19.000Z,208
2023-03-22T13:41:35.000Z,208
2023-03-22T13:42:52.000Z,213
2023-03-22T13:44:08.000Z,202
2023-03-22T13:45:24.000Z,202
2023-03-22T13:46:40.000Z,191
2023-03-22T13:47:56.000Z,174
2023-03-22T13:49:13.005Z,180
2023-03-22T13:50:29.000Z,191
2023-03-22T13:51:45.000Z,191
2023-03-22T13:53:01.000Z,196
2023-03-22T13:54:17.000Z,196
2023-03-22T13:55:34.032Z,196
2023-03-22T13:56:49.000Z,191
2023-03-22T13:58:05.000Z,196
2023-03-22T13:59:21.000Z,202
2023-03-22T14:00:37.000Z,213
2023-03-22T14:01:54.000Z,213
2023-03-22T14:03:10.000Z,219
2023-03-22T14:04:26.000Z,213
2023-03-22T14:05:42.000Z,208
2023-03-22T14:06:58.000Z,202
2023-03-22T14:08:15.000Z,191
2023-03-22T14:09:31.000Z,180
2023-03-22T14:10:47.000Z,168
2023-03-22T14:12:03.000Z,174
2023-03-22T14:13:18.785Z,180
2023-03-22T14:14:34.000Z,174
2023-03-22T14:15:51.000Z,185
2023-03-22T14:17:07.000Z,202
2023-03-22T14:18:23.000Z,208
2023-03-22T14:19:39.000Z,202
2023-03-22T14:20:55.000Z,208
2023-03-22T14:52:38.000Z,101
2023-03-22T14:53:55.000Z,106
2023-03-22T14:55:11.000Z,106
2023-03-22T14:56:27.000Z,101
2023-03-22T14:57:43.000Z,95
2023-03-22T14:58:59.000Z,84
2023-03-22T15:00:16.000Z,84
2023-03-22T15:01:32.220Z,84
2023-03-22T15:02:47.000Z,84
2023-03-22T15:04:03.000Z,84
2023-03-22T15:05:19.000Z,78
2023-03-22T15:06:36.000Z,84
2023-03-22T15:07:52.000Z,78
2023-03-22T15:09:08.000Z,73
2023-03-22T15:10:24.000Z,73
2023-03-22T15:11:40.000Z,73
2023-03-22T15:12:57.000Z,67
2023-03-22T15:14:13.000Z,73
2023-03-22T15:15:29.000Z,67
2023-03-22T15:16:45.000Z,67
2023-03-22T15:18:01.000Z,61
2023-03-22T15:19:17.000Z,61
2023-03-22T15:20:33.000Z,56
2023-03-22T15:21:49.000Z,50
2023-03-22T15:23:05.000Z,50
2023-03-22T15:24:21.000Z,45
2023-03-22T15:25:37.979Z,39
2023-03-22T15:26:54.000Z,39
2023-03-22T15:28:10.000Z,39
2023-03-22T15:29:26.000Z,33
2023-03-22T15:30:42.000Z,39
2023-03-22T15:31:58.000Z,39
2023-03-22T15:33:15.000Z,39
2023-03-22T15:34:31.328Z,39
2023-03-22T15:35:46.000Z,39
2023-03-22T15:37:02.000Z,39
2023-03-22T15:38:18.940Z,39
2023-03-22T15:39:35.000Z,39
2023-03-22T15:40:51.000Z,50
2023-03-22T15:42:07.000Z,50
2023-03-22T15:43:23.000Z,61
2023-03-22T15:44:39.000Z,67
2023-03-22T15:45:56.000Z,73
2023-03-22T15:47:12.000Z,78
2023-03-22T15:48:28.000Z,78
2023-03-22T15:49:44.000Z,78
2023-03-22T15:51:00.891Z,78
2023-03-22T15:52:16.000Z,73
2023-03-22T15:53:32.000Z,67
2023-03-22T15:54:48.000Z,61
2023-03-22T15:56:04.000Z,67
2023-03-22T15:57:20.000Z,67
2023-03-22T15:58:37.000Z,73
2023-03-22T15:59:53.000Z,73
2023-03-22T16:01:09.000Z,67
2023-03-22T16:02:25.672Z,67
2023-03-22T16:03:41.000Z,67
2023-03-22T16:04:58.000Z,67
2023-03-22T16:06:14.000Z,67
2023-03-22T16:07:30.000Z,61
2023-03-22T16:08:45.000Z,61
2023-03-22T16:10:01.000Z,61
2023-03-22T16:11:18.000Z,61
2023-03-22T16:12:34.000Z,50
2023-03-22T16:13:50.000Z,50
2023-03-22T16:15:05.000Z,50
2023-03-22T16:16:21.000Z,45
2023-03-22T16:17:38.000Z,50
2023-03-22T16:18:54.000Z,50
2023-03-22T16:20:10.000Z,50
2023-03-22T16:21:26.000Z,50
2023-03-22T16:22:42.000Z,50
2023-03-22T16:23:59.000Z,50
2023-03-22T16:25:15.000Z,50
2023-03-22T16:26:31.000Z,50
2023-03-22T16:27:47.000Z,50
2023-03-22T16:29:03.000Z,56
2023-03-22T16:30:20.000Z,50
2023-03-22T16:31:35.000Z,50
2023-03-22T16:32:51.000Z,50
2023-03-22T16:34:07.000Z,50
2023-03-22T16:35:23.000Z,50
2023-03-22T16:36:40.000Z,39
2023-03-22T16:37:56.000Z,39
2023-03-22T16:39:12.000Z,33
2023-03-22T16:40:28.000Z,33
2023-03-22T16:41:44.785Z,33
2023-03-22T16:43:01.000Z,28
2023-03-22T16:44:17.000Z,28
2023-03-22T16:45:33.000Z,28
2023-03-22T16:46:49.000Z,22
2023-03-22T16:48:04.000Z,22
2023-03-22T16:49:20.000Z,22
2023-03-22T16:50:37.000Z,22
2023-03-22T16:51:53.000Z,22
2023-03-22T16:53:09.000Z,22
2023-03-22T16:54:25.000Z,16
2023-03-22T16:55:41.000Z,16
2023-03-22T16:56:58.000Z,16
2023-03-22T16:58:14.000Z,11
2023-03-22T16:59:30.000Z,11
2023-03-22T17:00:46.000Z,11
2023-03-22T17:02:02.917Z,11
2023-03-22T17:03:19.000Z,11
2023-03-22T17:04:34.000Z,11
2023-03-22T17:05:50.000Z,11
2023-03-22T17:07:06.710Z,11
2023-03-22T17:08:22.000Z,16
2023-03-22T17:09:39.000Z,16
2023-03-22T17:10:55.000Z,16
2023-03-22T17:12:11.000Z,16
2023-03-22T17:13:27.000Z,16
2023-03-22T17:14:43.000Z,16
2023-03-22T17:16:00.000Z,11
2023-03-22T17:17:16.287Z,11
2023-03-22T17:18:32.000Z,11
2023-03-22T17:19:48.667Z,5
2023-03-22T17:21:03.000Z,5
2023-03-22T17:22:20.000Z,5
2023-03-22T17:23:36.000Z,5
2023-03-22T17:24:52.000Z,5
2023-03-22T17:26:08.000Z,5
2023-03-22T17:27:24.000Z,5
2023-03-22T17:28:41.000Z,0
2023-03-22T17:29:57.000Z,0
2023-03-22T17:31:13.000Z,0
2023-03-22T17:32:29.640Z,0
2023-03-22T17:33:45.844Z,0
2023-03-22T17:35:02.000Z,0
2023-03-22T17:36:18.000Z,0
2023-03-22T17:37:33.000Z,0
2023-03-22T17:38:49.000Z,0
2023-03-22T17:40:05.000Z,0
2023-03-22T17:41:22.000Z,0
2023-03-22T17:42:38.000Z,0
2023-03-22T17:43:54.000Z,0
2023-03-22T17:45:10.000Z,0
2023-03-22T17:46:26.000Z,0
2023-03-22T17:47:43.000Z,0
2023-03-22T17:48:59.000Z,0
2023-03-22T17:50:15.000Z,0
2023-03-22T17:51:31.000Z,0
2023-03-22T17:52:47.000Z,0
2023-03-22T17:54:03.000Z,0
2023-03-22T17:55:19.000Z,0
2023-03-22T17:56:35.000Z,0
2023-03-22T17:57:51.000Z,0
2023-03-22T17:59:07.000Z,0
2023-03-22T18:00:24.000Z,0
2023-03-22T18:01:40.000Z,0
2023-03-22T18:02:56.000Z,0
2023-03-22T18:04:12.557Z,0
2023-03-22T18:05:28.000Z,0
2023-03-22T18:06:44.000Z,0
2023-03-22T18:08:01.000Z,0
2023-03-22T18:09:17.000Z,0
2023-03-22T18:10:32.000Z,0
2023-03-22T18:11:48.000Z,0
2023-03-22T18:13:04.000Z,0
2023-03-22T18:14:21.000Z,0
2023-03-22T18:15:37.000Z,0
2023-03-22T18:16:53.000Z,0
2023-03-22T18:18:09.000Z,0
2023-03-22T18:19:25.000Z,0
2023-03-22T18:20:42.000Z,0
2023-03-22T18:21:58.000Z,0
2023-03-22T18:23:14.000Z,0
2023-03-22T18:24:30.000Z,0
2023-03-22T18:25:46.000Z,0
2023-03-22T18:27:02.000Z,0
2023-03-22T18:28:18.000Z,0
2023-03-22T18:29:34.000Z,0
2023-03-22T18:30:50.699Z,0
2023-03-22T18:32:06.000Z,0
2023-03-22T18:33:23.000Z,0
2023-03-22T18:34:39.000Z,0